sensor_id;sensor_type;location;lat;lon;timestamp;P1;durP1;ratioP1;P2;durP2;ratioP2
17852;SDS011;9052;53.494;14.376;2023-09-08T00:02:12;12.87;;;11.57;;
17852;SDS011;9052;53.494;14.376;2023-09-08T00:04:39;21.50;;;11.97;;
17852;SDS011;9052;53.494;14.376;2023-09-08T00:07:05;11.90;;;10.60;;
17852;SDS011;9052;53.494;14.376;2023-09-08T00:09:32;16.07;;;11.67;;
17852;SDS011;9052;53.494;14.376;2023-09-08T00:12:00;17.17;;;12.93;;
17852;SDS011;9052;53.494;14.376;2023-09-08T00:14:27;15.77;;;13.07;;
17852;SDS011;9052;53.494;14.376;2023-09-08T00:16:54;15.00;;;12.93;;
17852;SDS011;9052;53.494;14.376;2023-09-08T00:19:20;14.33;;;11.60;;
17852;SDS011;9052;53.494;14.376;2023-09-08T00:21:48;17.50;;;12.30;;
17852;SDS011;9052;53.494;14.376;2023-09-08T00:24:14;15.27;;;11.10;;
17852;SDS011;9052;53.494;14.376;2023-09-08T00:26:41;15.33;;;12.27;;
17852;SDS011;9052;53.494;14.376;2023-09-08T00:29:09;21.70;;;13.00;;
17852;SDS011;9052;53.494;14.376;2023-09-08T00:31:36;15.50;;;12.83;;
17852;SDS011;9052;53.494;14.376;2023-09-08T00:34:02;15.63;;;13.90;;
17852;SDS011;9052;53.494;14.376;2023-09-08T00:36:29;11.40;;;10.20;;
17852;SDS011;9052;53.494;14.376;2023-09-08T00:38:55;12.13;;;10.97;;
17852;SDS011;9052;53.494;14.376;2023-09-08T00:41:22;11.90;;;10.33;;
17852;SDS011;9052;53.494;14.376;2023-09-08T00:43:49;13.07;;;10.33;;
17852;SDS011;9052;53.494;14.376;2023-09-08T00:46:17;13.53;;;11.37;;
17852;SDS011;9052;53.494;14.376;2023-09-08T00:48:44;12.37;;;11.13;;
17852;SDS011;9052;53.494;14.376;2023-09-08T00:51:11;22.40;;;13.60;;
17852;SDS011;9052;53.494;14.376;2023-09-08T00:53:38;12.40;;;11.20;;
17852;SDS011;9052;53.494;14.376;2023-09-08T00:56:04;16.50;;;11.00;;
17852;SDS011;9052;53.494;14.376;2023-09-08T00:58:31;15.33;;;11.77;;
17852;SDS011;9052;53.494;14.376;2023-09-08T01:00:58;14.20;;;11.50;;
17852;SDS011;9052;53.494;14.376;2023-09-08T01:03:26;15.70;;;12.20;;
17852;SDS011;9052;53.494;14.376;2023-09-08T01:05:53;16.33;;;11.97;;
17852;SDS011;9052;53.494;14.376;2023-09-08T01:08:19;13.10;;;11.17;;
17852;SDS011;9052;53.494;14.376;2023-09-08T01:10:46;11.40;;;10.20;;
17852;SDS011;9052;53.494;14.376;2023-09-08T01:13:13;14.87;;;10.90;;
17852;SDS011;9052;53.494;14.376;2023-09-08T01:15:40;14.43;;;11.70;;
17852;SDS011;9052;53.494;14.376;2023-09-08T01:18:06;15.87;;;11.57;;
17852;SDS011;9052;53.494;14.376;2023-09-08T01:20:41;14.17;;;11.50;;
17852;SDS011;9052;53.494;14.376;2023-09-08T01:23:21;11.60;;;10.40;;
17852;SDS011;9052;53.494;14.376;2023-09-08T01:25:50;12.10;;;10.83;;
17852;SDS011;9052;53.494;14.376;2023-09-08T01:28:19;13.83;;;11.17;;
17852;SDS011;9052;53.494;14.376;2023-09-08T01:30:47;11.93;;;10.73;;
17852;SDS011;9052;53.494;14.376;2023-09-08T01:33:14;12.53;;;11.20;;
17852;SDS011;9052;53.494;14.376;2023-09-08T01:35:40;12.77;;;11.50;;
17852;SDS011;9052;53.494;14.376;2023-09-08T01:38:07;12.10;;;11.10;;
17852;SDS011;9052;53.494;14.376;2023-09-08T01:40:34;11.63;;;10.40;;
17852;SDS011;9052;53.494;14.376;2023-09-08T01:43:02;11.40;;;9.70;;
17852;SDS011;9052;53.494;14.376;2023-09-08T01:45:29;11.57;;;10.10;;
17852;SDS011;9052;53.494;14.376;2023-09-08T01:47:56;12.40;;;11.20;;
17852;SDS011;9052;53.494;14.376;2023-09-08T01:50:22;11.40;;;10.07;;
17852;SDS011;9052;53.494;14.376;2023-09-08T01:52:49;11.93;;;10.63;;
17852;SDS011;9052;53.494;14.376;2023-09-08T01:55:16;10.93;;;9.80;;
17852;SDS011;9052;53.494;14.376;2023-09-08T01:57:43;11.27;;;9.77;;
17852;SDS011;9052;53.494;14.376;2023-09-08T02:00:13;10.03;;;9.03;;
17852;SDS011;9052;53.494;14.376;2023-09-08T02:02:40;9.90;;;8.93;;
17852;SDS011;9052;53.494;14.376;2023-09-08T02:05:07;10.37;;;9.40;;
17852;SDS011;9052;53.494;14.376;2023-09-08T02:07:34;8.50;;;7.67;;
17852;SDS011;9052;53.494;14.376;2023-09-08T02:10:01;10.70;;;9.70;;
17852;SDS011;9052;53.494;14.376;2023-09-08T02:12:27;9.87;;;8.63;;
17852;SDS011;9052;53.494;14.376;2023-09-08T02:14:54;10.43;;;9.33;;
17852;SDS011;9052;53.494;14.376;2023-09-08T02:17:22;11.07;;;9.93;;
17852;SDS011;9052;53.494;14.376;2023-09-08T02:19:49;9.40;;;8.50;;
17852;SDS011;9052;53.494;14.376;2023-09-08T02:22:16;8.00;;;7.17;;
17852;SDS011;9052;53.494;14.376;2023-09-08T02:24:42;9.23;;;8.13;;
17852;SDS011;9052;53.494;14.376;2023-09-08T02:27:09;16.37;;;9.03;;
17852;SDS011;9052;53.494;14.376;2023-09-08T02:29:36;10.93;;;8.93;;
17852;SDS011;9052;53.494;14.376;2023-09-08T02:32:03;10.63;;;9.60;;
17852;SDS011;9052;53.494;14.376;2023-09-08T02:34:34;11.40;;;10.17;;
17852;SDS011;9052;53.494;14.376;2023-09-08T02:37:03;12.70;;;9.20;;
17852;SDS011;9052;53.494;14.376;2023-09-08T02:39:29;9.70;;;8.70;;
17852;SDS011;9052;53.494;14.376;2023-09-08T02:41:56;10.57;;;9.37;;
17852;SDS011;9052;53.494;14.376;2023-09-08T02:44:23;8.57;;;7.87;;
17852;SDS011;9052;53.494;14.376;2023-09-08T02:46:50;11.50;;;8.03;;
17852;SDS011;9052;53.494;14.376;2023-09-08T02:49:17;9.80;;;8.90;;
17852;SDS011;9052;53.494;14.376;2023-09-08T02:51:45;8.73;;;7.53;;
17852;SDS011;9052;53.494;14.376;2023-09-08T02:54:11;10.23;;;8.67;;
17852;SDS011;9052;53.494;14.376;2023-09-08T02:56:38;10.70;;;9.60;;
17852;SDS011;9052;53.494;14.376;2023-09-08T02:59:05;9.97;;;8.87;;
17852;SDS011;9052;53.494;14.376;2023-09-08T03:01:34;10.57;;;9.47;;
17852;SDS011;9052;53.494;14.376;2023-09-08T03:04:00;13.53;;;8.67;;
17852;SDS011;9052;53.494;14.376;2023-09-08T03:06:27;15.17;;;10.73;;
17852;SDS011;9052;53.494;14.376;2023-09-08T03:08:55;12.53;;;9.30;;
17852;SDS011;9052;53.494;14.376;2023-09-08T03:11:22;13.40;;;12.00;;
17852;SDS011;9052;53.494;14.376;2023-09-08T03:13:49;14.60;;;11.43;;
17852;SDS011;9052;53.494;14.376;2023-09-08T03:16:15;15.10;;;11.63;;
17852;SDS011;9052;53.494;14.376;2023-09-08T03:18:42;15.27;;;11.03;;
17852;SDS011;9052;53.494;14.376;2023-09-08T03:21:08;20.47;;;13.37;;
17852;SDS011;9052;53.494;14.376;2023-09-08T03:23:36;19.93;;;13.37;;
17852;SDS011;9052;53.494;14.376;2023-09-08T03:26:04;15.27;;;13.80;;
17852;SDS011;9052;53.494;14.376;2023-09-08T03:28:31;24.70;;;17.33;;
17852;SDS011;9052;53.494;14.376;2023-09-08T03:30:58;20.53;;;16.97;;
17852;SDS011;9052;53.494;14.376;2023-09-08T03:33:25;19.13;;;14.40;;
17852;SDS011;9052;53.494;14.376;2023-09-08T03:35:52;18.70;;;15.40;;
17852;SDS011;9052;53.494;14.376;2023-09-08T03:38:18;14.30;;;12.90;;
17852;SDS011;9052;53.494;14.376;2023-09-08T03:40:45;16.37;;;11.20;;
17852;SDS011;9052;53.494;14.376;2023-09-08T03:43:13;19.43;;;12.40;;
17852;SDS011;9052;53.494;14.376;2023-09-08T03:45:40;18.17;;;12.20;;
17852;SDS011;9052;53.494;14.376;2023-09-08T03:48:07;15.20;;;13.63;;
17852;SDS011;9052;53.494;14.376;2023-09-08T03:50:34;15.37;;;13.70;;
17852;SDS011;9052;53.494;14.376;2023-09-08T03:53:01;18.60;;;15.47;;
17852;SDS011;9052;53.494;14.376;2023-09-08T03:55:28;18.83;;;14.23;;
17852;SDS011;9052;53.494;14.376;2023-09-08T03:57:55;15.20;;;13.60;;
17852;SDS011;9052;53.494;14.376;2023-09-08T04:00:23;15.53;;;13.53;;
17852;SDS011;9052;53.494;14.376;2023-09-08T04:02:50;21.13;;;14.40;;
17852;SDS011;9052;53.494;14.376;2023-09-08T04:05:17;16.33;;;14.60;;
17852;SDS011;9052;53.494;14.376;2023-09-08T04:07:44;15.47;;;13.87;;
17852;SDS011;9052;53.494;14.376;2023-09-08T04:10:11;14.07;;;12.77;;
17852;SDS011;9052;53.494;14.376;2023-09-08T04:12:38;13.73;;;12.23;;
17852;SDS011;9052;53.494;14.376;2023-09-08T04:15:06;15.87;;;13.37;;
17852;SDS011;9052;53.494;14.376;2023-09-08T04:17:35;11.67;;;10.47;;
17852;SDS011;9052;53.494;14.376;2023-09-08T04:20:02;14.47;;;12.07;;
17852;SDS011;9052;53.494;14.376;2023-09-08T04:22:30;12.97;;;11.67;;
17852;SDS011;9052;53.494;14.376;2023-09-08T04:24:57;25.13;;;14.63;;
17852;SDS011;9052;53.494;14.376;2023-09-08T04:27:24;15.80;;;13.23;;
17852;SDS011;9052;53.494;14.376;2023-09-08T04:29:51;15.07;;;13.47;;
17852;SDS011;9052;53.494;14.376;2023-09-08T04:32:17;20.27;;;13.70;;
17852;SDS011;9052;53.494;14.376;2023-09-08T04:34:45;13.87;;;12.40;;
17852;SDS011;9052;53.494;14.376;2023-09-08T04:37:14;13.27;;;11.90;;
17852;SDS011;9052;53.494;14.376;2023-09-08T04:39:40;16.83;;;12.20;;
17852;SDS011;9052;53.494;14.376;2023-09-08T04:42:07;13.37;;;10.97;;
17852;SDS011;9052;53.494;14.376;2023-09-08T04:44:34;20.70;;;11.60;;
17852;SDS011;9052;53.494;14.376;2023-09-08T04:47:01;23.10;;;13.47;;
17852;SDS011;9052;53.494;14.376;2023-09-08T04:49:27;21.73;;;13.90;;
17852;SDS011;9052;53.494;14.376;2023-09-08T04:51:56;19.80;;;16.30;;
17852;SDS011;9052;53.494;14.376;2023-09-08T04:54:22;20.40;;;17.40;;
17852;SDS011;9052;53.494;14.376;2023-09-08T04:56:52;30.43;;;18.50;;
17852;SDS011;9052;53.494;14.376;2023-09-08T04:59:18;18.40;;;16.50;;
17852;SDS011;9052;53.494;14.376;2023-09-08T05:01:45;20.43;;;18.10;;
17852;SDS011;9052;53.494;14.376;2023-09-08T05:04:12;19.60;;;17.60;;
17852;SDS011;9052;53.494;14.376;2023-09-08T05:06:39;28.37;;;20.30;;
17852;SDS011;9052;53.494;14.376;2023-09-08T05:09:07;24.90;;;20.43;;
17852;SDS011;9052;53.494;14.376;2023-09-08T05:11:34;18.87;;;16.83;;
17852;SDS011;9052;53.494;14.376;2023-09-08T05:14:01;21.53;;;15.23;;
17852;SDS011;9052;53.494;14.376;2023-09-08T05:16:30;23.53;;;15.33;;
17852;SDS011;9052;53.494;14.376;2023-09-08T05:19:04;52.00;;;13.73;;
17852;SDS011;9052;53.494;14.376;2023-09-08T05:21:31;30.43;;;13.23;;
17852;SDS011;9052;53.494;14.376;2023-09-08T05:23:58;21.33;;;11.30;;
17852;SDS011;9052;53.494;14.376;2023-09-08T05:26:26;8.43;;;7.60;;
17852;SDS011;9052;53.494;14.376;2023-09-08T05:28:53;11.40;;;7.00;;
17852;SDS011;9052;53.494;14.376;2023-09-08T05:31:19;24.73;;;8.20;;
17852;SDS011;9052;53.494;14.376;2023-09-08T05:33:46;14.43;;;7.20;;
17852;SDS011;9052;53.494;14.376;2023-09-08T05:36:13;13.80;;;7.40;;
17852;SDS011;9052;53.494;14.376;2023-09-08T05:38:40;9.93;;;7.03;;
17852;SDS011;9052;53.494;14.376;2023-09-08T05:41:06;13.33;;;8.97;;
17852;SDS011;9052;53.494;14.376;2023-09-08T05:43:34;14.73;;;9.73;;
17852;SDS011;9052;53.494;14.376;2023-09-08T05:46:01;20.87;;;10.23;;
17852;SDS011;9052;53.494;14.376;2023-09-08T05:48:29;13.30;;;9.80;;
17852;SDS011;9052;53.494;14.376;2023-09-08T05:50:55;10.77;;;9.10;;
17852;SDS011;9052;53.494;14.376;2023-09-08T05:53:22;13.33;;;10.80;;
17852;SDS011;9052;53.494;14.376;2023-09-08T05:55:49;11.77;;;10.20;;
17852;SDS011;9052;53.494;14.376;2023-09-08T05:58:16;13.13;;;10.20;;
17852;SDS011;9052;53.494;14.376;2023-09-08T06:00:44;11.40;;;9.37;;
17852;SDS011;9052;53.494;14.376;2023-09-08T06:03:10;19.03;;;10.73;;
17852;SDS011;9052;53.494;14.376;2023-09-08T06:05:37;16.13;;;10.87;;
17852;SDS011;9052;53.494;14.376;2023-09-08T06:08:04;13.47;;;10.53;;
17852;SDS011;9052;53.494;14.376;2023-09-08T06:10:31;20.60;;;11.13;;
17852;SDS011;9052;53.494;14.376;2023-09-08T06:12:58;17.77;;;10.60;;
17852;SDS011;9052;53.494;14.376;2023-09-08T06:15:24;20.10;;;11.50;;
17852;SDS011;9052;53.494;14.376;2023-09-08T06:17:52;14.97;;;11.20;;
17852;SDS011;9052;53.494;14.376;2023-09-08T06:20:19;20.97;;;11.93;;
17852;SDS011;9052;53.494;14.376;2023-09-08T06:22:46;28.67;;;12.73;;
17852;SDS011;9052;53.494;14.376;2023-09-08T06:25:13;21.07;;;13.10;;
17852;SDS011;9052;53.494;14.376;2023-09-08T06:27:40;17.10;;;13.80;;
17852;SDS011;9052;53.494;14.376;2023-09-08T06:30:07;21.00;;;12.47;;
17852;SDS011;9052;53.494;14.376;2023-09-08T06:32:35;17.63;;;12.70;;
17852;SDS011;9052;53.494;14.376;2023-09-08T06:35:03;13.40;;;12.00;;
17852;SDS011;9052;53.494;14.376;2023-09-08T06:37:34;30.23;;;12.90;;
17852;SDS011;9052;53.494;14.376;2023-09-08T06:40:01;12.23;;;11.03;;
17852;SDS011;9052;53.494;14.376;2023-09-08T06:42:28;20.53;;;11.67;;
17852;SDS011;9052;53.494;14.376;2023-09-08T06:44:55;19.20;;;13.20;;
17852;SDS011;9052;53.494;14.376;2023-09-08T06:50:58;21.57;;;12.60;;
17852;SDS011;9052;53.494;14.376;2023-09-08T06:53:24;23.30;;;11.57;;
17852;SDS011;9052;53.494;14.376;2023-09-08T06:55:51;27.73;;;12.57;;
17852;SDS011;9052;53.494;14.376;2023-09-08T06:58:18;26.57;;;13.10;;
17852;SDS011;9052;53.494;14.376;2023-09-08T07:00:44;13.90;;;10.90;;
17852;SDS011;9052;53.494;14.376;2023-09-08T07:03:11;17.00;;;12.67;;
17852;SDS011;9052;53.494;14.376;2023-09-08T07:05:38;15.73;;;11.47;;
17852;SDS011;9052;53.494;14.376;2023-09-08T07:08:07;13.20;;;10.00;;
17852;SDS011;9052;53.494;14.376;2023-09-08T07:10:33;14.50;;;9.77;;
17852;SDS011;9052;53.494;14.376;2023-09-08T07:13:00;14.90;;;10.80;;
17852;SDS011;9052;53.494;14.376;2023-09-08T07:15:27;17.23;;;10.23;;
17852;SDS011;9052;53.494;14.376;2023-09-08T07:17:54;16.97;;;11.30;;
17852;SDS011;9052;53.494;14.376;2023-09-08T07:20:20;16.23;;;9.80;;
17852;SDS011;9052;53.494;14.376;2023-09-08T07:22:47;13.90;;;10.03;;
17852;SDS011;9052;53.494;14.376;2023-09-08T07:25:15;15.40;;;11.60;;
17852;SDS011;9052;53.494;14.376;2023-09-08T07:27:42;22.03;;;10.83;;
17852;SDS011;9052;53.494;14.376;2023-09-08T07:30:09;15.37;;;9.67;;
17852;SDS011;9052;53.494;14.376;2023-09-08T07:32:36;10.13;;;9.13;;
17852;SDS011;9052;53.494;14.376;2023-09-08T07:35:03;29.80;;;9.27;;
17852;SDS011;9052;53.494;14.376;2023-09-08T07:37:30;21.83;;;10.53;;
17852;SDS011;9052;53.494;14.376;2023-09-08T07:39:57;13.97;;;9.77;;
17852;SDS011;9052;53.494;14.376;2023-09-08T07:42:25;13.60;;;9.40;;
17852;SDS011;9052;53.494;14.376;2023-09-08T07:44:52;18.30;;;9.83;;
17852;SDS011;9052;53.494;14.376;2023-09-08T07:47:18;21.07;;;9.80;;
17852;SDS011;9052;53.494;14.376;2023-09-08T07:49:45;10.33;;;9.33;;
17852;SDS011;9052;53.494;14.376;2023-09-08T07:52:13;29.57;;;11.60;;
17852;SDS011;9052;53.494;14.376;2023-09-08T07:54:39;10.03;;;8.30;;
17852;SDS011;9052;53.494;14.376;2023-09-08T07:57:06;9.97;;;8.60;;
17852;SDS011;9052;53.494;14.376;2023-09-08T07:59:34;11.43;;;9.43;;
17852;SDS011;9052;53.494;14.376;2023-09-08T08:02:02;11.80;;;9.30;;
17852;SDS011;9052;53.494;14.376;2023-09-08T08:04:29;28.83;;;8.50;;
17852;SDS011;9052;53.494;14.376;2023-09-08T08:06:55;14.73;;;9.47;;
17852;SDS011;9052;53.494;14.376;2023-09-08T08:09:22;13.43;;;8.93;;
17852;SDS011;9052;53.494;14.376;2023-09-08T08:11:49;13.37;;;10.27;;
17852;SDS011;9052;53.494;14.376;2023-09-08T08:14:15;16.53;;;8.87;;
17852;SDS011;9052;53.494;14.376;2023-09-08T08:16:44;30.83;;;9.17;;
17852;SDS011;9052;53.494;14.376;2023-09-08T08:19:10;16.10;;;7.70;;
17852;SDS011;9052;53.494;14.376;2023-09-08T08:21:37;12.40;;;8.33;;
17852;SDS011;9052;53.494;14.376;2023-09-08T08:24:07;13.13;;;7.30;;
17852;SDS011;9052;53.494;14.376;2023-09-08T08:26:33;11.70;;;7.27;;
17852;SDS011;9052;53.494;14.376;2023-09-08T08:29:00;12.20;;;7.47;;
17852;SDS011;9052;53.494;14.376;2023-09-08T08:31:28;8.57;;;6.70;;
17852;SDS011;9052;53.494;14.376;2023-09-08T08:33:56;17.63;;;7.17;;
17852;SDS011;9052;53.494;14.376;2023-09-08T08:36:23;18.57;;;8.20;;
17852;SDS011;9052;53.494;14.376;2023-09-08T08:38:50;13.00;;;7.10;;
17852;SDS011;9052;53.494;14.376;2023-09-08T08:41:16;8.47;;;7.43;;
17852;SDS011;9052;53.494;14.376;2023-09-08T08:43:43;17.30;;;8.27;;
17852;SDS011;9052;53.494;14.376;2023-09-08T08:46:10;10.20;;;7.03;;
17852;SDS011;9052;53.494;14.376;2023-09-08T08:48:38;12.27;;;7.13;;
17852;SDS011;9052;53.494;14.376;2023-09-08T08:51:08;7.83;;;6.37;;
17852;SDS011;9052;53.494;14.376;2023-09-08T08:53:36;11.63;;;6.53;;
17852;SDS011;9052;53.494;14.376;2023-09-08T08:56:04;13.00;;;6.57;;
17852;SDS011;9052;53.494;14.376;2023-09-08T08:58:33;7.73;;;6.90;;
17852;SDS011;9052;53.494;14.376;2023-09-08T09:01:00;19.93;;;7.77;;
17852;SDS011;9052;53.494;14.376;2023-09-08T09:03:27;11.30;;;7.23;;
17852;SDS011;9052;53.494;14.376;2023-09-08T09:05:55;17.07;;;7.33;;
17852;SDS011;9052;53.494;14.376;2023-09-08T09:08:23;8.30;;;5.63;;
17852;SDS011;9052;53.494;14.376;2023-09-08T09:10:50;10.30;;;6.43;;
17852;SDS011;9052;53.494;14.376;2023-09-08T09:13:17;9.53;;;6.80;;
17852;SDS011;9052;53.494;14.376;2023-09-08T09:15:43;10.70;;;5.97;;
17852;SDS011;9052;53.494;14.376;2023-09-08T09:18:12;16.83;;;7.20;;
17852;SDS011;9052;53.494;14.376;2023-09-08T09:20:40;9.00;;;6.70;;
17852;SDS011;9052;53.494;14.376;2023-09-08T09:23:08;8.90;;;5.83;;
17852;SDS011;9052;53.494;14.376;2023-09-08T09:25:36;15.03;;;6.53;;
17852;SDS011;9052;53.494;14.376;2023-09-08T09:28:03;11.70;;;6.17;;
17852;SDS011;9052;53.494;14.376;2023-09-08T09:30:45;9.30;;;6.30;;
17852;SDS011;9052;53.494;14.376;2023-09-08T09:33:13;19.63;;;6.13;;
17852;SDS011;9052;53.494;14.376;2023-09-08T09:35:40;11.93;;;6.90;;
17852;SDS011;9052;53.494;14.376;2023-09-08T09:38:08;6.10;;;5.50;;
17852;SDS011;9052;53.494;14.376;2023-09-08T09:40:36;8.53;;;6.20;;
17852;SDS011;9052;53.494;14.376;2023-09-08T09:43:04;11.60;;;5.60;;
17852;SDS011;9052;53.494;14.376;2023-09-08T09:45:31;9.50;;;5.00;;
17852;SDS011;9052;53.494;14.376;2023-09-08T09:47:59;11.70;;;6.13;;
17852;SDS011;9052;53.494;14.376;2023-09-08T09:50:29;20.03;;;5.60;;
17852;SDS011;9052;53.494;14.376;2023-09-08T09:52:57;6.50;;;5.97;;
17852;SDS011;9052;53.494;14.376;2023-09-08T09:55:24;5.77;;;5.10;;
17852;SDS011;9052;53.494;14.376;2023-09-08T09:57:53;5.20;;;4.73;;
17852;SDS011;9052;53.494;14.376;2023-09-08T10:00:22;10.10;;;4.87;;
17852;SDS011;9052;53.494;14.376;2023-09-08T10:02:50;6.57;;;5.00;;
17852;SDS011;9052;53.494;14.376;2023-09-08T10:05:17;5.10;;;4.70;;
17852;SDS011;9052;53.494;14.376;2023-09-08T10:07:44;9.23;;;5.07;;
17852;SDS011;9052;53.494;14.376;2023-09-08T10:10:12;7.47;;;5.53;;
17852;SDS011;9052;53.494;14.376;2023-09-08T10:12:39;7.47;;;5.77;;
17852;SDS011;9052;53.494;14.376;2023-09-08T10:15:08;12.77;;;5.73;;
17852;SDS011;9052;53.494;14.376;2023-09-08T10:17:36;6.50;;;5.90;;
17852;SDS011;9052;53.494;14.376;2023-09-08T10:20:04;7.50;;;5.90;;
17852;SDS011;9052;53.494;14.376;2023-09-08T10:22:35;8.00;;;5.17;;
17852;SDS011;9052;53.494;14.376;2023-09-08T10:25:05;17.53;;;5.60;;
17852;SDS011;9052;53.494;14.376;2023-09-08T10:27:33;6.37;;;5.77;;
17852;SDS011;9052;53.494;14.376;2023-09-08T10:30:01;15.13;;;6.87;;
17852;SDS011;9052;53.494;14.376;2023-09-08T10:32:30;20.80;;;5.93;;
17852;SDS011;9052;53.494;14.376;2023-09-08T10:34:58;7.27;;;6.60;;
17852;SDS011;9052;53.494;14.376;2023-09-08T10:37:26;6.63;;;6.03;;
17852;SDS011;9052;53.494;14.376;2023-09-08T10:39:54;6.70;;;5.97;;
17852;SDS011;9052;53.494;14.376;2023-09-08T10:42:22;7.27;;;5.60;;
17852;SDS011;9052;53.494;14.376;2023-09-08T10:45:14;6.80;;;6.20;;
17852;SDS011;9052;53.494;14.376;2023-09-08T10:47:55;29.93;;;6.33;;
17852;SDS011;9052;53.494;14.376;2023-09-08T10:50:26;5.27;;;4.60;;
17852;SDS011;9052;53.494;14.376;2023-09-08T10:53:10;5.30;;;4.80;;
17852;SDS011;9052;53.494;14.376;2023-09-08T10:55:40;7.60;;;5.10;;
17852;SDS011;9052;53.494;14.376;2023-09-08T10:58:09;5.43;;;5.00;;
17852;SDS011;9052;53.494;14.376;2023-09-08T11:00:42;4.57;;;4.27;;
17852;SDS011;9052;53.494;14.376;2023-09-08T11:03:12;4.83;;;4.33;;
17852;SDS011;9052;53.494;14.376;2023-09-08T11:05:41;7.70;;;4.87;;
17852;SDS011;9052;53.494;14.376;2023-09-08T11:08:08;9.53;;;5.17;;
17852;SDS011;9052;53.494;14.376;2023-09-08T11:10:35;9.70;;;5.23;;
17852;SDS011;9052;53.494;14.376;2023-09-08T11:13:05;6.20;;;5.17;;
17852;SDS011;9052;53.494;14.376;2023-09-08T11:15:32;11.27;;;4.77;;
17852;SDS011;9052;53.494;14.376;2023-09-08T11:18:04;4.90;;;4.40;;
17852;SDS011;9052;53.494;14.376;2023-09-08T11:20:33;4.93;;;4.43;;
17852;SDS011;9052;53.494;14.376;2023-09-08T11:23:00;7.10;;;4.97;;
17852;SDS011;9052;53.494;14.376;2023-09-08T11:25:27;8.90;;;4.37;;
17852;SDS011;9052;53.494;14.376;2023-09-08T11:27:54;8.87;;;5.67;;
17852;SDS011;9052;53.494;14.376;2023-09-08T11:30:21;5.73;;;4.67;;
17852;SDS011;9052;53.494;14.376;2023-09-08T11:32:47;9.33;;;5.10;;
17852;SDS011;9052;53.494;14.376;2023-09-08T11:35:16;5.77;;;3.87;;
17852;SDS011;9052;53.494;14.376;2023-09-08T11:37:48;10.67;;;5.90;;
17852;SDS011;9052;53.494;14.376;2023-09-08T11:40:16;11.30;;;5.40;;
17852;SDS011;9052;53.494;14.376;2023-09-08T11:42:45;5.60;;;5.00;;
17852;SDS011;9052;53.494;14.376;2023-09-08T11:45:12;5.90;;;4.77;;
17852;SDS011;9052;53.494;14.376;2023-09-08T11:47:40;6.80;;;4.77;;
17852;SDS011;9052;53.494;14.376;2023-09-08T11:50:09;5.93;;;4.40;;
17852;SDS011;9052;53.494;14.376;2023-09-08T11:52:40;5.20;;;4.37;;
17852;SDS011;9052;53.494;14.376;2023-09-08T11:55:08;7.90;;;4.87;;
17852;SDS011;9052;53.494;14.376;2023-09-08T11:57:36;17.70;;;4.70;;
17852;SDS011;9052;53.494;14.376;2023-09-08T12:00:03;6.33;;;4.50;;
17852;SDS011;9052;53.494;14.376;2023-09-08T12:02:33;4.87;;;4.47;;
17852;SDS011;9052;53.494;14.376;2023-09-08T12:05:01;8.60;;;5.37;;
17852;SDS011;9052;53.494;14.376;2023-09-08T12:07:28;20.83;;;5.47;;
17852;SDS011;9052;53.494;14.376;2023-09-08T12:09:55;7.30;;;5.33;;
17852;SDS011;9052;53.494;14.376;2023-09-08T12:12:25;7.53;;;5.57;;
17852;SDS011;9052;53.494;14.376;2023-09-08T12:14:52;14.43;;;5.40;;
17852;SDS011;9052;53.494;14.376;2023-09-08T12:17:20;13.57;;;4.70;;
17852;SDS011;9052;53.494;14.376;2023-09-08T12:19:49;20.27;;;5.50;;
17852;SDS011;9052;53.494;14.376;2023-09-08T12:22:16;6.40;;;5.10;;
17852;SDS011;9052;53.494;14.376;2023-09-08T12:24:47;5.33;;;4.83;;
17852;SDS011;9052;53.494;14.376;2023-09-08T12:27:15;8.00;;;5.50;;
17852;SDS011;9052;53.494;14.376;2023-09-08T12:29:52;9.07;;;5.17;;
17852;SDS011;9052;53.494;14.376;2023-09-08T12:32:20;6.00;;;5.40;;
17852;SDS011;9052;53.494;14.376;2023-09-08T12:34:47;12.87;;;4.80;;
17852;SDS011;9052;53.494;14.376;2023-09-08T12:37:14;10.63;;;4.80;;
17852;SDS011;9052;53.494;14.376;2023-09-08T12:39:40;7.80;;;5.17;;
17852;SDS011;9052;53.494;14.376;2023-09-08T12:42:07;12.17;;;5.53;;
17852;SDS011;9052;53.494;14.376;2023-09-08T12:44:34;7.90;;;5.27;;
17852;SDS011;9052;53.494;14.376;2023-09-08T12:47:02;5.67;;;5.07;;
17852;SDS011;9052;53.494;14.376;2023-09-08T12:49:29;5.57;;;5.07;;
17852;SDS011;9052;53.494;14.376;2023-09-08T12:51:55;8.40;;;5.50;;
17852;SDS011;9052;53.494;14.376;2023-09-08T12:54:22;9.20;;;5.90;;
17852;SDS011;9052;53.494;14.376;2023-09-08T12:56:49;8.73;;;4.90;;
17852;SDS011;9052;53.494;14.376;2023-09-08T12:59:16;4.93;;;4.57;;
17852;SDS011;9052;53.494;14.376;2023-09-08T13:01:43;10.40;;;5.10;;
17852;SDS011;9052;53.494;14.376;2023-09-08T13:04:11;6.30;;;5.30;;
17852;SDS011;9052;53.494;14.376;2023-09-08T13:06:40;16.03;;;4.73;;
17852;SDS011;9052;53.494;14.376;2023-09-08T13:09:07;9.43;;;5.40;;
17852;SDS011;9052;53.494;14.376;2023-09-08T13:11:33;9.40;;;5.77;;
17852;SDS011;9052;53.494;14.376;2023-09-08T13:14:00;7.07;;;6.30;;
17852;SDS011;9052;53.494;14.376;2023-09-08T13:16:27;5.70;;;5.20;;
17852;SDS011;9052;53.494;14.376;2023-09-08T13:18:54;5.87;;;5.37;;
17852;SDS011;9052;53.494;14.376;2023-09-08T13:21:23;6.37;;;5.53;;
17852;SDS011;9052;53.494;14.376;2023-09-08T13:23:49;7.30;;;4.87;;
17852;SDS011;9052;53.494;14.376;2023-09-08T13:26:16;5.50;;;5.00;;
17852;SDS011;9052;53.494;14.376;2023-09-08T13:28:43;6.63;;;5.13;;
17852;SDS011;9052;53.494;14.376;2023-09-08T13:31:09;5.57;;;5.07;;
17852;SDS011;9052;53.494;14.376;2023-09-08T13:33:36;13.53;;;5.10;;
17852;SDS011;9052;53.494;14.376;2023-09-08T13:36:03;15.47;;;5.20;;
17852;SDS011;9052;53.494;14.376;2023-09-08T13:38:31;9.40;;;5.80;;
17852;SDS011;9052;53.494;14.376;2023-09-08T13:40:58;6.40;;;4.63;;
17852;SDS011;9052;53.494;14.376;2023-09-08T13:43:25;12.93;;;5.23;;
17852;SDS011;9052;53.494;14.376;2023-09-08T13:45:51;5.13;;;4.73;;
17852;SDS011;9052;53.494;14.376;2023-09-08T13:48:18;53.87;;;6.07;;
17852;SDS011;9052;53.494;14.376;2023-09-08T13:50:45;7.43;;;5.10;;
17852;SDS011;9052;53.494;14.376;2023-09-08T13:53:11;6.70;;;4.40;;
17852;SDS011;9052;53.494;14.376;2023-09-08T13:55:39;6.00;;;4.70;;
17852;SDS011;9052;53.494;14.376;2023-09-08T13:58:06;9.73;;;4.50;;
17852;SDS011;9052;53.494;14.376;2023-09-08T14:00:33;9.90;;;5.40;;
17852;SDS011;9052;53.494;14.376;2023-09-08T14:02:59;7.10;;;4.90;;
17852;SDS011;9052;53.494;14.376;2023-09-08T14:05:26;11.50;;;5.27;;
17852;SDS011;9052;53.494;14.376;2023-09-08T14:07:53;13.57;;;5.30;;
17852;SDS011;9052;53.494;14.376;2023-09-08T14:10:19;6.17;;;5.00;;
17852;SDS011;9052;53.494;14.376;2023-09-08T14:12:47;5.50;;;4.93;;
17852;SDS011;9052;53.494;14.376;2023-09-08T14:15:14;8.73;;;4.10;;
17852;SDS011;9052;53.494;14.376;2023-09-08T14:17:41;8.80;;;5.13;;
17852;SDS011;9052;53.494;14.376;2023-09-08T14:20:08;6.43;;;4.77;;
17852;SDS011;9052;53.494;14.376;2023-09-08T14:22:36;6.00;;;5.40;;
17852;SDS011;9052;53.494;14.376;2023-09-08T14:25:03;15.63;;;5.30;;
17852;SDS011;9052;53.494;14.376;2023-09-08T14:27:30;5.77;;;5.27;;
17852;SDS011;9052;53.494;14.376;2023-09-08T14:30:00;7.70;;;5.40;;
17852;SDS011;9052;53.494;14.376;2023-09-08T14:32:27;8.27;;;5.97;;
17852;SDS011;9052;53.494;14.376;2023-09-08T14:34:53;6.17;;;5.57;;
17852;SDS011;9052;53.494;14.376;2023-09-08T14:37:21;9.77;;;5.13;;
17852;SDS011;9052;53.494;14.376;2023-09-08T14:39:48;5.03;;;4.53;;